createdAt,value
2022-10-17T00:02:01.170Z,71.43
2022-10-17T00:04:27.873Z,71.49
2022-10-17T00:06:54.550Z,71.91
2022-10-17T00:09:21.138Z,71.91
2022-10-17T00:11:47.680Z,71.85
2022-10-17T00:14:14.313Z,72.09
2022-10-17T00:16:40.854Z,72.04
2022-10-17T00:19:07.597Z,72.18
2022-10-17T00:21:34.135Z,70.92
2022-10-17T00:24:01.547Z,72.13
2022-10-17T00:26:29.645Z,73.36
2022-10-17T00:28:56.900Z,73.28
2022-10-17T00:31:24.535Z,73.85
2022-10-17T00:33:52.082Z,73.85
2022-10-17T00:36:21.424Z,74.72
2022-10-17T00:38:51.298Z,74.89
2022-10-17T00:41:19.985Z,75.09
2022-10-17T00:43:54.151Z,75.81
2022-10-17T00:46:20.771Z,75.40
2022-10-17T00:48:49.981Z,75.41
2022-10-17T00:51:16.919Z,74.95
2022-10-17T00:53:43.568Z,74.92
2022-10-17T00:56:10.354Z,74.39
2022-10-17T00:58:37.358Z,74.06
2022-10-17T01:01:05.185Z,74.18
2022-10-17T01:03:31.824Z,73.99
2022-10-17T01:05:58.440Z,73.63
2022-10-17T01:08:25.104Z,73.27
2022-10-17T01:11:03.303Z,73.03
2022-10-17T01:13:42.789Z,72.42
2022-10-17T01:16:16.508Z,72.44
2022-10-17T01:18:58.457Z,72.03
2022-10-17T01:21:31.700Z,71.37
2022-10-17T01:24:23.739Z,71.58
2022-10-17T01:27:09.164Z,72.93
2022-10-17T01:29:42.015Z,74.52
2022-10-17T01:32:26.187Z,74.05
2022-10-17T01:34:57.960Z,73.34
2022-10-17T01:37:41.018Z,72.98
2022-10-17T01:40:11.641Z,72.39
2022-10-17T01:42:48.748Z,71.98
2022-10-17T01:45:33.923Z,72.03
2022-10-17T01:48:11.801Z,71.93
2022-10-17T01:50:42.464Z,72.19
2022-10-17T01:53:15.059Z,72.59
2022-10-17T01:55:43.885Z,72.00
2022-10-17T01:58:14.513Z,72.90
2022-10-17T02:00:43.096Z,73.20
2022-10-17T02:03:14.138Z,73.47
2022-10-17T02:05:41.666Z,73.42
2022-10-17T02:08:10.080Z,73.33
2022-10-17T02:10:41.838Z,73.39
2022-10-17T02:13:36.585Z,72.87
2022-10-17T02:16:21.862Z,72.94
2022-10-17T02:19:02.030Z,72.26
2022-10-17T02:21:37.207Z,72.86
2022-10-17T02:24:10.401Z,73.01
2022-10-17T02:26:41.751Z,73.02
2022-10-17T02:29:19.684Z,72.99
2022-10-17T02:31:50.110Z,74.33
2022-10-17T02:34:24.502Z,73.83
2022-10-17T02:36:53.526Z,74.51
2022-10-17T02:39:22.825Z,74.34
2022-10-17T02:41:51.132Z,73.97
2022-10-17T02:44:17.734Z,73.98
2022-10-17T02:46:48.677Z,73.41
2022-10-17T02:49:24.447Z,72.92
2022-10-17T02:52:09.940Z,72.37
2022-10-17T02:54:41.027Z,72.82
2022-10-17T02:57:11.613Z,72.92
2022-10-17T02:59:38.455Z,72.72
2022-10-17T03:02:06.351Z,71.84
2022-10-17T03:04:34.343Z,71.55
2022-10-17T03:07:00.879Z,71.75
2022-10-17T03:09:27.517Z,71.19
2022-10-17T03:11:54.363Z,71.46
2022-10-17T03:14:20.986Z,71.73
2022-10-17T03:16:47.585Z,72.03
2022-10-17T03:19:15.769Z,71.69
2022-10-17T03:21:43.424Z,71.79
2022-10-17T03:24:10.043Z,72.00
2022-10-17T03:26:36.650Z,71.60
2022-10-17T03:29:03.822Z,71.70
2022-10-17T03:31:32.123Z,71.79
2022-10-17T03:33:59.759Z,71.92
2022-10-17T03:36:26.373Z,71.75
2022-10-17T03:38:54.769Z,71.44
2022-10-17T03:41:23.082Z,72.64
2022-10-17T03:43:49.721Z,72.03
2022-10-17T03:48:48.288Z,71.69
2022-10-17T03:51:16.054Z,71.62
2022-10-17T03:53:50.453Z,71.97
2022-10-17T03:56:22.928Z,71.76
2022-10-17T03:58:58.579Z,71.97
2022-10-17T04:01:26.659Z,71.47
2022-10-17T04:03:55.029Z,71.50
2022-10-17T04:06:22.131Z,72.20
2022-10-17T04:08:49.670Z,71.79
2022-10-17T04:11:31.459Z,71.60
2022-10-17T04:14:00.118Z,71.12
2022-10-17T04:16:28.495Z,71.09
2022-10-17T04:19:01.618Z,71.35
2022-10-17T04:21:33.598Z,71.94
2022-10-17T04:24:05.185Z,72.48
2022-10-17T04:26:51.111Z,72.75
2022-10-17T04:29:18.841Z,73.38
2022-10-17T04:31:49.783Z,72.98
2022-10-17T04:34:24.664Z,72.85
2022-10-17T04:36:51.972Z,72.08
2022-10-17T04:39:18.969Z,72.35
2022-10-17T04:41:46.321Z,72.13
2022-10-17T04:44:13.022Z,72.76
2022-10-17T04:46:44.106Z,73.45
2022-10-17T04:49:10.590Z,72.62
2022-10-17T04:51:39.225Z,72.71
2022-10-17T04:54:18.242Z,72.62
2022-10-17T04:56:48.723Z,72.10
2022-10-17T04:59:15.424Z,72.58
2022-10-17T05:01:44.156Z,72.22
2022-10-17T05:04:10.957Z,73.55
2022-10-17T05:06:37.949Z,73.47
2022-10-17T05:09:17.102Z,73.08
2022-10-17T05:11:43.984Z,73.37
2022-10-17T05:14:11.580Z,72.95
2022-10-17T05:16:38.143Z,72.82
2022-10-17T05:19:05.099Z,73.26
2022-10-17T05:21:38.457Z,73.80
2022-10-17T05:24:09.803Z,73.45
2022-10-17T05:26:37.993Z,73.39
2022-10-17T05:29:05.454Z,72.85
2022-10-17T05:31:36.772Z,73.78
2022-10-17T05:34:04.447Z,73.54
2022-10-17T05:36:33.207Z,73.46
2022-10-17T05:39:01.182Z,73.03
2022-10-17T05:41:28.728Z,72.60
2022-10-17T05:43:55.274Z,72.75
2022-10-17T05:46:34.190Z,72.15
2022-10-17T05:49:00.842Z,72.18
2022-10-17T05:51:27.700Z,72.34
2022-10-17T05:53:56.202Z,72.43
2022-10-17T05:56:26.388Z,72.56
2022-10-17T05:58:56.293Z,72.02
2022-10-17T06:01:45.325Z,72.11
2022-10-17T06:04:12.060Z,72.00
2022-10-17T06:06:40.321Z,72.00
2022-10-17T06:09:08.038Z,71.78
2022-10-17T06:11:38.276Z,71.87
2022-10-17T06:14:06.188Z,71.70
2022-10-17T06:16:32.802Z,71.77
2022-10-17T06:18:59.420Z,71.71
2022-10-17T06:21:27.558Z,71.88
2022-10-17T06:24:02.640Z,72.16
2022-10-17T06:26:32.498Z,72.58
2022-10-17T06:28:59.242Z,72.98
2022-10-17T06:31:29.944Z,72.06
2022-10-17T06:33:56.611Z,71.77
2022-10-17T06:36:23.528Z,71.79
2022-10-17T06:38:51.010Z,71.66
2022-10-17T06:41:23.031Z,72.02
2022-10-17T06:43:52.589Z,72.24
2022-10-17T06:46:46.147Z,72.52
2022-10-17T06:49:15.848Z,72.22
2022-10-17T06:51:48.057Z,71.80
2022-10-17T06:54:17.477Z,72.23
2022-10-17T06:57:10.399Z,72.26
2022-10-17T06:59:59.863Z,72.46
2022-10-17T07:02:39.748Z,71.94
2022-10-17T07:05:06.556Z,71.35
2022-10-17T07:07:34.487Z,70.61
2022-10-17T07:10:04.349Z,69.60
2022-10-17T07:12:30.908Z,69.62
2022-10-17T07:14:57.417Z,69.79
2022-10-17T07:17:24.072Z,69.96
2022-10-17T07:19:50.752Z,70.67
2022-10-17T07:22:17.493Z,71.47
2022-10-17T07:24:47.467Z,71.02
2022-10-17T07:27:28.504Z,70.95
2022-10-17T07:29:55.384Z,71.09
2022-10-17T07:32:36.911Z,71.02
2022-10-17T07:35:04.642Z,70.82
2022-10-17T07:37:32.025Z,70.40
2022-10-17T07:39:59.527Z,70.47
2022-10-17T07:42:26.151Z,70.22
2022-10-17T07:44:55.032Z,69.45
2022-10-17T07:47:22.599Z,69.53
2022-10-17T07:49:49.985Z,69.30
2022-10-17T07:52:16.889Z,67.92
2022-10-17T07:54:43.886Z,68.62
2022-10-17T07:57:10.371Z,69.43
2022-10-17T07:59:37.676Z,68.42
2022-10-17T08:02:04.774Z,69.20
2022-10-17T08:04:32.075Z,68.80
2022-10-17T08:07:11.619Z,67.52
2022-10-17T08:09:46.704Z,67.31
2022-10-17T08:12:14.890Z,67.48
2022-10-17T08:14:41.918Z,66.50
2022-10-17T08:17:08.564Z,66.42
2022-10-17T08:19:38.481Z,67.36
2022-10-17T08:22:05.117Z,66.91
2022-10-17T08:24:32.007Z,66.51
2022-10-17T08:26:59.264Z,66.47
2022-10-17T08:29:25.920Z,66.47
2022-10-17T08:31:56.228Z,66.24
2022-10-17T08:34:27.627Z,64.73
2022-10-17T08:36:54.265Z,64.97
2022-10-17T08:39:20.950Z,64.79
2022-10-17T08:42:03.663Z,63.84
2022-10-17T08:44:51.633Z,64.71
2022-10-17T08:47:29.767Z,64.19
2022-10-17T08:49:58.835Z,65.51
2022-10-17T08:52:34.536Z,65.07
2022-10-17T08:55:01.124Z,64.29
2022-10-17T08:57:29.186Z,64.68
2022-10-17T08:59:56.785Z,64.24
2022-10-17T09:02:32.933Z,64.25
2022-10-17T09:05:22.440Z,63.15
2022-10-17T09:07:58.043Z,62.85
2022-10-17T09:11:33.926Z,62.17
2022-10-17T09:14:19.405Z,62.06
2022-10-17T09:16:48.844Z,63.07
2022-10-17T09:19:23.317Z,62.63
2022-10-17T09:21:55.177Z,62.21
2022-10-17T09:26:57.129Z,63.10
2022-10-17T09:29:27.016Z,62.01
2022-10-17T09:32:11.515Z,62.54
2022-10-17T09:34:38.167Z,62.03
2022-10-17T09:37:12.946Z,60.85
2022-10-17T09:39:41.689Z,60.98
2022-10-17T09:42:12.570Z,61.02
2022-10-17T09:45:14.753Z,60.60
2022-10-17T09:47:46.663Z,60.79
2022-10-17T09:50:40.035Z,60.83
2022-10-17T09:53:12.770Z,63.01
2022-10-17T09:56:10.479Z,63.07
2022-10-17T09:58:49.051Z,62.75
2022-10-17T10:01:29.087Z,62.28
2022-10-17T10:04:13.559Z,61.21
2022-10-17T10:06:41.372Z,61.53
2022-10-17T10:11:55.845Z,60.85
2022-10-17T10:14:35.655Z,61.96
2022-10-17T10:17:04.176Z,63.14
2022-10-17T10:19:33.316Z,61.63
2022-10-17T10:22:02.214Z,63.13
2022-10-17T10:24:31.105Z,61.76
2022-10-17T10:27:00.324Z,60.84
2022-10-17T10:29:32.675Z,60.90
2022-10-17T10:32:11.356Z,61.34
2022-10-17T10:34:42.387Z,61.30
2022-10-17T10:37:19.482Z,62.31
2022-10-17T10:39:49.888Z,60.51
2022-10-17T10:42:35.813Z,58.67
2022-10-17T10:45:05.394Z,57.92
2022-10-17T10:47:33.061Z,58.13
2022-10-17T10:50:24.835Z,59.41
2022-10-17T10:53:02.479Z,59.36
2022-10-17T10:55:37.260Z,58.63
2022-10-17T10:58:20.312Z,58.90
2022-10-17T11:00:47.462Z,59.16
2022-10-17T11:03:26.738Z,58.03
2022-10-17T11:05:57.809Z,60.41
2022-10-17T11:08:45.367Z,57.06
2022-10-17T11:11:23.845Z,56.93
2022-10-17T11:14:11.665Z,59.28
2022-10-17T11:16:43.729Z,56.17
2022-10-17T11:19:34.278Z,55.48
2022-10-17T11:22:23.979Z,57.29
2022-10-17T11:24:57.117Z,57.67
2022-10-17T11:27:24.813Z,56.77
2022-10-17T11:29:51.445Z,57.50
2022-10-17T11:32:24.692Z,57.28
2022-10-17T11:35:04.444Z,54.74
2022-10-17T11:37:35.540Z,56.25
2022-10-17T11:40:19.152Z,56.16
2022-10-17T11:43:16.038Z,55.47
2022-10-17T11:45:48.720Z,54.77
2022-10-17T11:48:26.465Z,56.27
2022-10-17T11:54:19.126Z,56.15
2022-10-17T11:57:21.375Z,56.93
2022-10-17T12:00:21.922Z,55.15
2022-10-17T12:03:05.221Z,55.90
2022-10-17T12:05:50.588Z,56.42
2022-10-17T12:08:39.713Z,57.07
2022-10-17T12:11:15.405Z,56.25
2022-10-17T12:13:53.607Z,54.57
2022-10-17T12:16:20.525Z,54.46
2022-10-17T12:18:49.201Z,56.43
2022-10-17T12:21:16.012Z,50.95
2022-10-17T12:23:51.884Z,54.11
2022-10-17T12:26:27.243Z,54.91
2022-10-17T12:28:54.025Z,53.27
2022-10-17T12:31:21.798Z,47.93
2022-10-17T12:34:16.089Z,47.94
2022-10-17T12:36:42.724Z,47.24
2022-10-17T12:39:11.846Z,48.00
2022-10-17T12:41:38.510Z,47.70
2022-10-17T12:44:14.562Z,45.36
2022-10-17T12:46:51.192Z,45.63
2022-10-17T12:49:25.466Z,47.41
2022-10-17T12:52:13.343Z,46.33
2022-10-17T12:54:47.600Z,46.60
2022-10-17T12:57:33.106Z,45.16
2022-10-17T13:00:05.118Z,47.25
2022-10-17T13:02:32.869Z,44.13
2022-10-17T13:05:04.201Z,44.62
2022-10-17T13:07:31.044Z,46.25
2022-10-17T13:09:58.073Z,46.68
2022-10-17T13:12:27.334Z,47.78
2022-10-17T13:14:54.865Z,46.98
2022-10-17T13:17:30.689Z,47.79
2022-10-17T13:19:57.743Z,49.39
2022-10-17T13:22:27.523Z,47.41
2022-10-17T13:25:07.911Z,45.66
2022-10-17T13:27:35.719Z,49.05
2022-10-17T13:30:21.082Z,46.12
2022-10-17T13:32:47.595Z,48.35
2022-10-17T13:35:17.370Z,47.08
2022-10-17T13:37:49.169Z,46.84
2022-10-17T13:40:49.710Z,46.90
2022-10-17T13:43:16.974Z,47.14
2022-10-17T13:45:51.959Z,48.51
2022-10-17T13:48:22.202Z,47.72
2022-10-17T13:50:51.838Z,47.25
2022-10-17T13:53:30.694Z,48.64
2022-10-17T13:56:29.607Z,46.88
2022-10-17T13:58:59.217Z,46.88
2022-10-17T14:01:27.836Z,48.93
2022-10-17T14:04:07.976Z,49.81
2022-10-17T14:06:47.568Z,51.35
2022-10-17T14:09:24.568Z,48.20
2022-10-17T14:12:00.929Z,48.41
2022-10-17T14:14:28.340Z,48.36
2022-10-17T14:16:55.232Z,50.62
2022-10-17T14:19:27.711Z,50.95
2022-10-17T14:21:57.045Z,50.24
2022-10-17T14:24:23.599Z,48.93
2022-10-17T14:26:52.543Z,51.53
2022-10-17T14:29:21.949Z,49.89
2022-10-17T14:31:50.669Z,52.33
2022-10-17T14:34:27.031Z,51.05
2022-10-17T14:36:53.743Z,52.70
2022-10-17T14:39:24.224Z,50.27
2022-10-17T14:41:51.833Z,49.55
2022-10-17T14:44:32.370Z,51.35
2022-10-17T14:47:03.457Z,51.78
2022-10-17T14:49:40.678Z,48.63
2022-10-17T14:52:18.277Z,50.87
2022-10-17T14:54:47.859Z,49.63
2022-10-17T14:57:23.427Z,49.31
2022-10-17T14:59:55.114Z,51.41
2022-10-17T15:02:30.086Z,52.38
2022-10-17T15:05:02.931Z,48.84
2022-10-17T15:07:34.780Z,50.65
2022-10-17T15:10:04.522Z,51.50
2022-10-17T15:12:32.685Z,50.50
2022-10-17T15:14:59.383Z,50.97
2022-10-17T15:17:28.883Z,52.67
2022-10-17T15:19:55.952Z,54.07
2022-10-17T15:22:23.000Z,54.51
2022-10-17T15:24:49.680Z,55.18
2022-10-17T15:27:18.453Z,56.73
2022-10-17T15:29:46.582Z,56.52
2022-10-17T15:32:13.813Z,56.21
2022-10-17T15:34:46.595Z,56.52
2022-10-17T15:37:26.012Z,56.25
2022-10-17T15:39:54.702Z,56.79
2022-10-17T15:42:30.520Z,57.58
2022-10-17T15:44:58.285Z,57.40
2022-10-17T15:47:28.932Z,56.27
2022-10-17T15:49:55.757Z,57.00
2022-10-17T15:52:23.802Z,57.10
2022-10-17T15:54:50.666Z,58.24
2022-10-17T15:57:25.921Z,58.34
2022-10-17T15:59:53.341Z,58.71
2022-10-17T16:02:21.310Z,59.42
2022-10-17T16:04:49.399Z,58.59
2022-10-17T16:07:16.791Z,58.57
2022-10-17T16:09:43.446Z,58.17
2022-10-17T16:14:49.919Z,59.32
2022-10-17T16:17:16.743Z,59.65
2022-10-17T16:19:43.446Z,59.98
2022-10-17T16:22:19.755Z,60.33
2022-10-17T16:24:46.580Z,60.18
2022-10-17T16:50:20.923Z,61.80
2022-10-17T16:52:48.870Z,62.13
2022-10-17T18:37:57.947Z,66.19
2022-10-17T18:40:24.572Z,66.03
2022-10-17T18:42:51.233Z,65.96
2022-10-17T18:45:17.852Z,66.38
2022-10-17T18:47:47.120Z,66.38
2022-10-17T18:50:14.502Z,67.68
2022-10-17T18:52:41.029Z,68.71
2022-10-17T18:55:08.101Z,69.10
2022-10-17T18:57:34.609Z,67.96
2022-10-17T19:00:01.131Z,67.21
2022-10-17T19:02:27.925Z,67.83
2022-10-17T19:04:54.522Z,67.29
2022-10-17T19:07:21.031Z,67.70
2022-10-17T19:09:48.471Z,67.87
2022-10-17T19:12:15.068Z,67.60
2022-10-17T19:14:41.694Z,68.09
2022-10-17T19:17:08.206Z,68.54
2022-10-17T19:19:35.891Z,68.42
2022-10-17T19:22:03.551Z,68.12
2022-10-17T19:24:30.375Z,67.82
2022-10-17T19:26:59.226Z,67.19
2022-10-17T19:29:27.785Z,66.96
2022-10-17T19:34:27.620Z,68.36
2022-10-17T19:36:55.692Z,68.93
2022-10-17T19:39:23.793Z,69.68
2022-10-17T19:41:50.279Z,70.30
2022-10-17T19:44:17.106Z,70.08
2022-10-17T19:46:46.576Z,69.93
2022-10-17T19:49:13.459Z,69.21
2022-10-17T19:51:40.341Z,69.60
2022-10-17T19:54:06.957Z,69.75
2022-10-17T19:56:37.676Z,69.50
2022-10-17T19:59:07.467Z,69.19
2022-10-17T20:01:35.979Z,68.88
2022-10-17T20:04:02.569Z,68.72
2022-10-17T20:06:29.120Z,68.81
2022-10-17T20:08:56.173Z,69.08
2022-10-17T20:11:27.076Z,69.92
2022-10-17T20:13:54.566Z,69.17
2022-10-17T20:16:23.819Z,69.73
2022-10-17T20:18:51.802Z,69.43
2022-10-17T20:21:21.590Z,69.15
2022-10-17T20:23:48.144Z,69.19
2022-10-17T20:26:26.266Z,69.27
2022-10-17T20:29:05.638Z,69.04
2022-10-17T20:31:32.210Z,69.56
2022-10-17T20:33:59.786Z,69.24
2022-10-17T20:36:26.758Z,69.42
2022-10-17T20:38:55.400Z,69.33
2022-10-17T20:41:22.491Z,69.53
2022-10-17T20:43:53.173Z,69.64
2022-10-17T20:46:36.252Z,69.35
2022-10-17T20:49:05.860Z,69.31
2022-10-17T20:51:32.859Z,69.67
2022-10-17T20:53:59.511Z,69.78
2022-10-17T20:56:28.191Z,69.48
2022-10-17T20:58:57.181Z,69.53
2022-10-17T21:01:25.171Z,69.75
2022-10-17T21:03:52.273Z,69.80
2022-10-17T21:06:19.919Z,70.20
2022-10-17T21:08:47.654Z,69.94
2022-10-17T21:11:19.247Z,69.88
2022-10-17T21:13:46.845Z,70.00
2022-10-17T21:16:16.687Z,69.74
2022-10-17T21:18:43.750Z,70.10
2022-10-17T21:21:19.365Z,69.94
2022-10-17T21:23:47.530Z,70.21
2022-10-17T21:26:15.085Z,70.23
2022-10-17T21:28:43.106Z,69.25
2022-10-17T21:31:13.557Z,70.10
2022-10-17T21:33:40.901Z,70.95
2022-10-17T21:36:08.628Z,70.74
2022-10-17T21:38:37.295Z,70.30
2022-10-17T21:41:08.308Z,70.21
2022-10-17T21:43:35.828Z,70.62
2022-10-17T21:46:07.493Z,71.56
2022-10-17T21:48:34.634Z,72.33
2022-10-17T21:51:06.408Z,72.15
2022-10-17T21:53:33.579Z,73.04
2022-10-17T21:56:06.009Z,73.37
2022-10-17T21:58:33.316Z,73.21
2022-10-17T22:01:16.716Z,72.80
2022-10-17T22:03:46.864Z,73.29
2022-10-17T22:06:38.820Z,72.75
2022-10-17T22:09:08.998Z,72.36
2022-10-17T22:11:35.920Z,72.21
2022-10-17T22:14:05.559Z,71.74
2022-10-17T22:16:33.373Z,71.44
2022-10-17T22:19:04.920Z,71.10
2022-10-17T22:21:34.377Z,70.88
2022-10-17T22:24:03.212Z,70.96
2022-10-17T22:26:31.276Z,70.88
2022-10-17T22:28:58.202Z,70.85
2022-10-17T22:31:25.229Z,70.93
2022-10-17T22:33:51.939Z,70.96
2022-10-17T22:36:18.607Z,70.72
2022-10-17T22:38:45.176Z,70.68
2022-10-17T22:41:12.160Z,71.25
2022-10-17T22:43:38.771Z,72.37
2022-10-17T22:46:06.634Z,72.22
2022-10-17T22:48:34.279Z,73.25
2022-10-17T22:51:02.111Z,73.85
2022-10-17T22:53:29.699Z,74.05
2022-10-17T22:56:01.463Z,74.05
2022-10-17T22:58:29.400Z,74.41
2022-10-17T23:00:56.098Z,73.96
2022-10-17T23:03:24.073Z,74.27
2022-10-17T23:05:51.033Z,74.87
2022-10-17T23:08:18.268Z,74.34
2022-10-17T23:10:46.190Z,74.31
2022-10-17T23:13:13.528Z,73.65
2022-10-17T23:15:40.415Z,72.85
2022-10-17T23:18:07.797Z,72.93
2022-10-17T23:20:34.608Z,72.99
2022-10-17T23:23:01.172Z,72.05
2022-10-17T23:25:27.974Z,72.00
2022-10-17T23:27:54.585Z,71.64
2022-10-17T23:30:21.167Z,72.05
2022-10-17T23:32:47.706Z,71.91
2022-10-17T23:35:14.299Z,72.19
2022-10-17T23:37:40.841Z,71.92
2022-10-17T23:40:08.189Z,71.90
2022-10-17T23:42:34.825Z,71.58
2022-10-17T23:45:01.594Z,71.52
2022-10-17T23:47:28.502Z,71.92
2022-10-17T23:49:55.420Z,71.97
2022-10-17T23:52:21.918Z,71.51
2022-10-17T23:54:48.525Z,71.91
2022-10-17T23:57:15.105Z,72.43
2022-10-17T23:59:41.774Z,73.47
